createdAt,value
2023-03-04T00:01:43.940Z,58.53
2023-03-04T00:04:10.364Z,59.13
2023-03-04T00:06:36.705Z,61.67
2023-03-04T00:09:04.580Z,60.27
2023-03-04T00:11:34.191Z,60.50
2023-03-04T00:14:00.576Z,61.27
2023-03-04T00:16:28.524Z,59.80
2023-03-04T00:18:55.348Z,61.00
2023-03-04T00:21:21.724Z,58.73
2023-03-04T00:23:48.312Z,60.07
2023-03-04T00:26:14.862Z,58.00
2023-03-04T00:28:41.320Z,59.57
2023-03-04T00:31:07.769Z,57.33
2023-03-04T00:33:34.081Z,57.80
2023-03-04T00:36:00.494Z,60.97
2023-03-04T00:38:27.127Z,58.97
2023-03-04T00:40:53.857Z,59.00
2023-03-04T00:43:20.497Z,57.90
2023-03-04T00:45:46.833Z,60.20
2023-03-04T00:48:13.221Z,53.70
2023-03-04T00:50:39.645Z,60.20
2023-03-04T00:53:06.187Z,59.47
2023-03-04T00:55:32.460Z,58.60
2023-03-04T00:57:58.787Z,55.37
2023-03-04T01:00:25.066Z,54.63
2023-03-04T01:02:51.464Z,58.27
2023-03-04T01:05:17.872Z,56.20
2023-03-04T01:07:44.184Z,56.30
2023-03-04T01:10:11.498Z,60.70
2023-03-04T01:12:38.000Z,56.03
2023-03-04T01:15:04.397Z,57.40
2023-03-04T01:17:30.712Z,57.53
2023-03-04T01:19:57.016Z,59.40
2023-03-04T01:22:23.245Z,56.43
2023-03-04T01:24:49.586Z,56.40
2023-03-04T01:27:15.941Z,54.53
2023-03-04T01:29:42.197Z,60.90
2023-03-04T01:32:08.607Z,52.90
2023-03-04T01:34:36.084Z,56.20
2023-03-04T01:37:02.445Z,60.20
2023-03-04T01:39:28.740Z,56.50
2023-03-04T01:41:55.294Z,54.33
2023-03-04T01:44:21.757Z,55.33
2023-03-04T01:46:49.883Z,55.10
2023-03-04T01:49:17.035Z,51.27
2023-03-04T01:51:53.358Z,54.00
2023-03-04T01:54:20.390Z,53.33
2023-03-04T01:56:47.645Z,56.20
2023-03-04T01:59:21.518Z,52.87
2023-03-04T02:01:49.138Z,57.83
2023-03-04T02:04:20.533Z,53.33
2023-03-04T02:06:47.737Z,50.67
2023-03-04T02:09:14.879Z,49.50
2023-03-04T02:11:41.405Z,48.30
2023-03-04T02:14:07.778Z,49.00
2023-03-04T02:16:34.596Z,44.30
2023-03-04T02:19:00.958Z,50.13
2023-03-04T02:21:29.156Z,44.97
2023-03-04T02:23:58.389Z,46.37
2023-03-04T02:26:26.386Z,44.83
2023-03-04T02:28:53.889Z,47.57
2023-03-04T02:31:22.398Z,45.93
2023-03-04T02:33:48.960Z,42.40
2023-03-04T02:36:15.294Z,46.33
2023-03-04T02:38:41.783Z,42.13
2023-03-04T02:41:12.525Z,38.97
2023-03-04T02:43:38.770Z,37.40
2023-03-04T02:46:05.853Z,40.77
2023-03-04T02:48:32.152Z,34.57
2023-03-04T02:50:58.492Z,35.03
2023-03-04T02:53:28.646Z,33.77
2023-03-04T02:55:54.927Z,32.33
2023-03-04T02:58:21.284Z,35.23
2023-03-04T03:00:47.737Z,36.10
2023-03-04T03:03:14.098Z,30.73
2023-03-04T03:05:40.678Z,30.17
2023-03-04T03:08:06.922Z,34.60
2023-03-04T03:10:33.514Z,32.57
2023-03-04T03:13:00.079Z,31.90
2023-03-04T03:15:26.472Z,35.27
2023-03-04T03:17:52.750Z,31.83
2023-03-04T03:20:19.181Z,34.23
2023-03-04T03:22:45.837Z,32.10
2023-03-04T03:25:12.718Z,33.93
2023-03-04T03:27:39.207Z,33.43
2023-03-04T03:30:06.087Z,34.37
2023-03-04T03:32:32.547Z,31.07
2023-03-04T03:34:58.881Z,32.80
2023-03-04T03:37:25.269Z,29.37
2023-03-04T03:39:51.559Z,33.27
2023-03-04T03:42:17.798Z,35.17
2023-03-04T03:44:44.140Z,33.77
2023-03-04T03:47:10.378Z,29.43
2023-03-04T03:49:36.634Z,31.63
2023-03-04T03:52:03.201Z,28.27
2023-03-04T03:54:29.537Z,30.97
2023-03-04T03:56:55.807Z,33.57
2023-03-04T03:59:23.935Z,27.33
2023-03-04T04:01:50.377Z,32.23
2023-03-04T04:04:16.732Z,28.83
2023-03-04T04:06:43.081Z,30.07
2023-03-04T04:09:09.343Z,30.23
2023-03-04T04:11:35.682Z,28.20
2023-03-04T04:14:02.043Z,31.07
2023-03-04T04:16:28.375Z,23.57
2023-03-04T04:18:54.638Z,28.47
2023-03-04T04:21:20.980Z,27.57
2023-03-04T04:23:47.226Z,28.27
2023-03-04T04:26:13.508Z,23.93
2023-03-04T04:28:39.952Z,25.63
2023-03-04T04:31:09.216Z,27.33
2023-03-04T04:33:35.746Z,30.03
2023-03-04T04:36:03.520Z,28.83
2023-03-04T04:38:29.753Z,24.90
2023-03-04T04:40:56.925Z,29.27
2023-03-04T04:43:23.142Z,23.90
2023-03-04T04:45:49.425Z,21.00
2023-03-04T04:48:15.709Z,24.77
2023-03-04T04:50:42.003Z,23.80
2023-03-04T04:53:08.302Z,27.47
2023-03-04T04:55:34.792Z,28.67
2023-03-04T04:58:01.120Z,29.53
2023-03-04T05:00:27.389Z,22.00
2023-03-04T05:02:53.896Z,26.47
2023-03-04T05:05:20.197Z,27.47
2023-03-04T05:07:46.537Z,26.07
2023-03-04T05:10:12.853Z,25.90
2023-03-04T05:12:39.276Z,28.60
2023-03-04T05:15:05.726Z,27.87
2023-03-04T05:17:32.005Z,27.97
2023-03-04T05:19:58.301Z,27.37
2023-03-04T05:22:24.625Z,35.60
2023-03-04T05:24:51.482Z,26.57
2023-03-04T05:27:17.989Z,27.80
2023-03-04T05:29:46.634Z,28.57
2023-03-04T05:32:12.937Z,28.00
2023-03-04T05:34:39.277Z,35.27
2023-03-04T05:37:05.551Z,22.73
2023-03-04T05:39:31.812Z,32.37
2023-03-04T05:41:58.104Z,23.80
2023-03-04T05:44:24.392Z,29.83
2023-03-04T05:46:50.796Z,27.83
2023-03-04T05:49:17.092Z,28.57
2023-03-04T05:51:43.402Z,26.90
2023-03-04T05:54:09.692Z,30.63
2023-03-04T05:56:35.997Z,27.73
2023-03-04T05:59:02.289Z,28.77
2023-03-04T06:01:28.573Z,23.93
2023-03-04T06:03:54.931Z,21.80
2023-03-04T06:06:21.257Z,24.83
2023-03-04T06:08:47.540Z,22.80
2023-03-04T06:11:13.938Z,25.57
2023-03-04T06:13:40.410Z,23.10
2023-03-04T06:16:06.864Z,22.83
2023-03-04T06:18:33.211Z,22.13
2023-03-04T06:21:00.762Z,24.57
2023-03-04T06:23:27.690Z,23.87
2023-03-04T06:25:55.095Z,24.10
2023-03-04T06:28:22.049Z,22.77
2023-03-04T06:30:48.325Z,20.93
2023-03-04T06:33:14.604Z,23.03
2023-03-04T06:35:41.016Z,20.33
2023-03-04T06:38:07.415Z,20.30
2023-03-04T06:40:33.694Z,20.30
2023-03-04T06:43:00.281Z,23.70
2023-03-04T06:45:26.710Z,30.13
2023-03-04T06:47:52.971Z,21.50
2023-03-04T06:50:19.201Z,19.77
2023-03-04T06:52:45.472Z,20.07
2023-03-04T06:55:12.930Z,18.27
2023-03-04T06:57:39.420Z,18.60
2023-03-04T07:00:06.371Z,17.63
2023-03-04T07:02:33.198Z,21.80
2023-03-04T07:04:59.487Z,23.00
2023-03-04T07:07:26.305Z,21.53
2023-03-04T07:09:52.613Z,17.77
2023-03-04T07:12:18.969Z,18.13
2023-03-04T07:14:45.193Z,17.63
2023-03-04T07:17:11.473Z,22.90
2023-03-04T07:19:38.015Z,20.70
2023-03-04T07:22:04.277Z,17.20
2023-03-04T07:24:30.521Z,15.10
2023-03-04T07:26:56.824Z,15.70
2023-03-04T07:29:23.078Z,17.47
2023-03-04T07:31:51.057Z,19.90
2023-03-04T07:34:19.316Z,18.77
2023-03-04T07:36:45.619Z,16.80
2023-03-04T07:39:13.516Z,15.17
2023-03-04T07:41:40.429Z,16.70
2023-03-04T07:44:07.488Z,15.30
2023-03-04T07:46:34.061Z,18.27
2023-03-04T07:49:00.371Z,15.70
2023-03-04T07:51:27.210Z,13.83
2023-03-04T07:53:55.686Z,18.13
2023-03-04T07:56:23.322Z,14.60
2023-03-04T07:58:49.962Z,15.20
2023-03-04T08:01:17.651Z,14.13
2023-03-04T08:03:44.017Z,14.33
2023-03-04T08:06:11.447Z,20.63
2023-03-04T08:08:37.868Z,16.53
2023-03-04T08:11:05.165Z,24.60
2023-03-04T08:13:32.131Z,19.47
2023-03-04T08:15:58.441Z,19.10
2023-03-04T08:18:24.824Z,14.87
2023-03-04T08:20:52.231Z,15.50
2023-03-04T08:23:18.721Z,14.60
2023-03-04T08:25:45.712Z,22.17
2023-03-04T08:28:13.505Z,15.67
2023-03-04T08:30:40.557Z,11.27
2023-03-04T08:33:07.430Z,14.33
2023-03-04T08:35:36.523Z,20.13
2023-03-04T08:38:02.858Z,14.17
2023-03-04T08:40:30.897Z,10.60
2023-03-04T08:42:57.210Z,19.63
2023-03-04T08:45:23.593Z,16.00
2023-03-04T08:47:50.741Z,14.73
2023-03-04T08:50:17.043Z,13.97
2023-03-04T08:52:43.347Z,14.13
2023-03-04T08:55:09.823Z,11.40
2023-03-04T08:57:36.055Z,9.50
2023-03-04T09:00:02.387Z,14.30
2023-03-04T09:02:28.640Z,8.60
2023-03-04T09:04:54.942Z,17.57
2023-03-04T09:07:21.162Z,12.33
2023-03-04T09:09:47.486Z,9.50
2023-03-04T09:12:13.805Z,9.73
2023-03-04T09:14:40.109Z,9.07
2023-03-04T09:17:06.908Z,6.33
2023-03-04T09:19:33.239Z,11.93
2023-03-04T09:21:59.630Z,10.17
2023-03-04T09:24:26.529Z,11.67
2023-03-04T09:26:53.008Z,7.77
2023-03-04T09:29:19.369Z,7.10
2023-03-04T09:31:45.677Z,6.73
2023-03-04T09:34:12.031Z,6.00
2023-03-04T09:36:38.376Z,8.90
2023-03-04T09:39:05.122Z,9.50
2023-03-04T09:41:37.028Z,10.53
2023-03-04T09:44:07.376Z,9.70
2023-03-04T09:46:35.720Z,14.53
2023-03-04T09:49:02.095Z,9.93
2023-03-04T09:51:40.363Z,8.30
2023-03-04T09:54:08.178Z,6.67
2023-03-04T09:56:36.447Z,8.67
2023-03-04T09:59:02.736Z,8.30
2023-03-04T10:01:47.325Z,6.87
2023-03-04T10:04:34.250Z,7.30
2023-03-04T10:07:02.295Z,10.87
2023-03-04T10:09:31.997Z,11.37
2023-03-04T10:12:06.566Z,5.80
2023-03-04T10:14:38.065Z,8.37
2023-03-04T10:17:11.816Z,7.20
2023-03-04T10:19:57.023Z,5.13
2023-03-04T10:22:23.309Z,4.73
2023-03-04T10:24:49.615Z,8.13
2023-03-04T10:27:18.996Z,7.77
2023-03-04T10:29:46.846Z,8.60
2023-03-04T10:32:16.688Z,7.13
2023-03-04T10:34:42.954Z,7.10
2023-03-04T10:37:09.787Z,9.37
2023-03-04T10:39:37.514Z,6.17
2023-03-04T10:42:04.024Z,7.97
2023-03-04T10:44:31.575Z,7.17
2023-03-04T10:46:58.398Z,9.83
2023-03-04T10:49:25.398Z,7.83
2023-03-04T10:51:57.755Z,5.83
2023-03-04T10:54:26.370Z,4.83
2023-03-04T10:56:55.195Z,9.60
2023-03-04T10:59:33.796Z,9.03
2023-03-04T11:02:01.174Z,5.50
2023-03-04T11:04:32.310Z,5.57
2023-03-04T11:06:58.642Z,14.17
2023-03-04T11:09:26.919Z,6.83
2023-03-04T11:11:55.295Z,6.67
2023-03-04T11:14:21.521Z,5.47
2023-03-04T11:16:59.071Z,4.60
2023-03-04T11:19:29.522Z,7.20
2023-03-04T11:21:56.470Z,7.73
2023-03-04T11:24:29.184Z,7.63
2023-03-04T11:27:08.006Z,3.87
2023-03-04T11:29:40.303Z,5.00
2023-03-04T11:32:10.026Z,5.90
2023-03-04T11:34:39.163Z,4.57
2023-03-04T11:37:08.054Z,10.10
2023-03-04T11:39:36.696Z,3.07
2023-03-04T11:42:07.622Z,3.43
2023-03-04T11:44:34.177Z,5.20
2023-03-04T11:47:00.423Z,8.47
2023-03-04T11:49:32.889Z,3.80
2023-03-04T11:51:59.176Z,5.47
2023-03-04T11:54:40.770Z,3.17
2023-03-04T11:57:18.421Z,2.60
2023-03-04T11:59:49.976Z,4.23
2023-03-04T12:02:17.696Z,8.23
2023-03-04T12:04:53.016Z,3.40
2023-03-04T12:07:22.608Z,5.13
2023-03-04T12:10:04.886Z,3.37
2023-03-04T12:12:46.510Z,8.40
2023-03-04T12:15:20.548Z,1.47
2023-03-04T12:18:04.973Z,2.97
2023-03-04T12:20:40.360Z,4.27
2023-03-04T12:23:06.634Z,3.30
2023-03-04T12:25:43.603Z,5.17
2023-03-04T12:28:16.192Z,6.40
2023-03-04T12:30:52.872Z,2.83
2023-03-04T12:33:38.016Z,3.37
2023-03-04T12:36:23.254Z,3.60
2023-03-04T12:39:10.012Z,3.53
2023-03-04T12:41:43.559Z,6.20
2023-03-04T12:44:16.919Z,4.00
2023-03-04T12:46:46.461Z,5.27
2023-03-04T12:49:28.518Z,68.57
2023-03-04T12:52:01.110Z,2.23
2023-03-04T12:54:47.680Z,4.60
2023-03-04T12:57:24.504Z,1.70
2023-03-04T13:00:09.318Z,3.73
2023-03-04T13:02:47.957Z,5.20
2023-03-04T13:05:24.354Z,4.13
2023-03-04T13:07:50.787Z,2.77
2023-03-04T13:10:18.379Z,2.77
2023-03-04T13:12:49.224Z,5.87
2023-03-04T13:15:21.534Z,4.53
2023-03-04T13:17:57.083Z,2.77
2023-03-04T13:20:32.588Z,5.53
2023-03-04T13:23:02.083Z,5.60
2023-03-04T13:25:34.574Z,3.07
2023-03-04T13:28:02.722Z,4.20
2023-03-04T13:30:31.758Z,4.33
2023-03-04T13:32:58.055Z,2.60
2023-03-04T13:35:43.231Z,6.07
2023-03-04T13:38:23.003Z,3.50
2023-03-04T13:41:07.877Z,2.63
2023-03-04T13:43:41.212Z,4.37
2023-03-04T13:46:19.893Z,4.17
2023-03-04T13:48:49.407Z,4.73
2023-03-04T13:51:37.025Z,4.40
2023-03-04T13:54:12.521Z,2.97
2023-03-04T13:56:39.519Z,4.00
2023-03-04T13:59:08.884Z,4.57
2023-03-04T14:01:41.291Z,19.83
2023-03-04T14:04:16.462Z,2.00
2023-03-04T14:06:43.723Z,2.77
2023-03-04T14:09:14.887Z,3.07
2023-03-04T14:11:42.702Z,2.30
2023-03-04T14:14:13.359Z,3.83
2023-03-04T14:16:41.105Z,3.90
2023-03-04T14:19:12.874Z,4.57
2023-03-04T14:21:43.989Z,2.70
2023-03-04T14:24:12.994Z,4.47
2023-03-04T14:26:39.470Z,4.03
2023-03-04T14:29:19.920Z,4.13
2023-03-04T14:31:46.411Z,2.00
2023-03-04T14:34:17.494Z,4.53
2023-03-04T14:36:43.966Z,3.47
2023-03-04T14:39:14.867Z,2.30
2023-03-04T14:41:43.126Z,4.63
2023-03-04T14:44:24.692Z,4.43
2023-03-04T14:47:06.428Z,4.87
2023-03-04T14:49:35.064Z,5.80
2023-03-04T14:52:01.324Z,3.77
2023-03-04T14:54:27.576Z,7.70
2023-03-04T14:56:53.926Z,16.43
2023-03-04T14:59:31.052Z,21.27
2023-03-04T15:02:16.082Z,5.20
2023-03-04T15:04:42.775Z,3.63
2023-03-04T15:07:21.049Z,7.53
2023-03-04T15:09:52.359Z,4.33
2023-03-04T15:12:23.823Z,7.40
2023-03-04T15:14:52.094Z,7.57
2023-03-04T15:17:38.488Z,8.30
2023-03-04T15:20:07.803Z,5.80
2023-03-04T15:22:56.459Z,3.90
2023-03-04T15:25:23.274Z,5.93
2023-03-04T15:27:50.581Z,5.03
2023-03-04T15:30:21.549Z,3.53
2023-03-04T15:32:47.848Z,4.77
2023-03-04T15:35:15.124Z,5.77
2023-03-04T15:37:42.074Z,4.63
2023-03-04T15:40:22.942Z,3.90
2023-03-04T15:42:49.502Z,5.90
2023-03-04T15:45:21.258Z,5.77
2023-03-04T15:47:47.565Z,3.77
2023-03-04T15:50:13.863Z,4.77
2023-03-04T15:52:40.158Z,3.17
2023-03-04T15:55:07.081Z,5.27
2023-03-04T15:57:33.700Z,3.87
2023-03-04T16:00:00.104Z,5.93
2023-03-04T16:02:29.331Z,3.63
2023-03-04T16:04:55.603Z,4.90
2023-03-04T16:07:24.601Z,7.77
2023-03-04T16:09:55.540Z,6.57
2023-03-04T16:12:22.012Z,6.17
2023-03-04T16:14:49.204Z,8.40
2023-03-04T16:17:18.275Z,5.97
2023-03-04T16:19:45.127Z,4.97
2023-03-04T16:22:15.447Z,7.10
2023-03-04T16:24:42.102Z,5.27
2023-03-04T16:27:10.526Z,3.60
2023-03-04T16:29:37.044Z,5.13
2023-03-04T16:32:03.364Z,6.07
2023-03-04T16:34:29.654Z,4.60
2023-03-04T16:36:55.913Z,5.50
2023-03-04T16:39:24.025Z,4.10
2023-03-04T16:41:50.580Z,7.03
2023-03-04T16:44:16.843Z,5.93
2023-03-04T16:46:43.268Z,6.47
2023-03-04T16:49:09.936Z,7.83
2023-03-04T16:51:39.968Z,3.90
2023-03-04T16:54:08.029Z,88.77
2023-03-04T16:56:34.283Z,5.77
2023-03-04T16:59:00.544Z,3.87
2023-03-04T17:01:28.481Z,4.73
2023-03-04T17:03:55.699Z,6.67
2023-03-04T17:06:22.626Z,6.03
2023-03-04T17:08:48.983Z,6.97
2023-03-04T17:11:19.554Z,6.97
2023-03-04T17:13:45.941Z,6.93
2023-03-04T17:16:13.130Z,12.57
2023-03-04T17:18:39.624Z,8.27
2023-03-04T17:21:07.061Z,9.67
2023-03-04T17:23:34.900Z,8.77
2023-03-04T17:26:01.338Z,7.73
2023-03-04T17:28:27.612Z,6.37
2023-03-04T17:30:54.374Z,7.73
2023-03-04T17:33:20.980Z,7.57
2023-03-04T17:35:47.237Z,8.80
2023-03-04T17:38:14.052Z,8.17
2023-03-04T17:40:40.995Z,10.43
2023-03-04T17:43:11.288Z,8.23
2023-03-04T17:45:38.391Z,6.97
2023-03-04T17:48:04.858Z,9.90
2023-03-04T17:50:31.139Z,9.10
2023-03-04T17:52:57.526Z,10.33
2023-03-04T17:55:23.786Z,7.93
2023-03-04T17:57:52.876Z,15.63
2023-03-04T18:00:19.875Z,9.37
2023-03-04T18:02:46.177Z,9.30
2023-03-04T18:05:12.462Z,9.27
2023-03-04T18:07:38.849Z,10.83
2023-03-04T18:10:05.435Z,11.00
2023-03-04T18:12:31.775Z,8.07
2023-03-04T18:14:58.926Z,8.57
2023-03-04T18:17:25.334Z,7.80
2023-03-04T18:19:51.842Z,7.67
2023-03-04T18:22:18.098Z,9.13
2023-03-04T18:24:44.481Z,9.70
2023-03-04T18:27:10.950Z,12.60
2023-03-04T18:29:37.319Z,9.37
2023-03-04T18:32:03.791Z,9.60
2023-03-04T18:34:30.149Z,6.97
2023-03-04T18:36:58.666Z,9.60
2023-03-04T18:39:24.983Z,7.73
2023-03-04T18:41:51.319Z,10.03
2023-03-04T18:44:17.613Z,10.43
2023-03-04T18:46:45.549Z,13.10
2023-03-04T18:49:12.455Z,8.80
2023-03-04T18:51:38.918Z,13.70
2023-03-04T18:54:05.340Z,8.53
2023-03-04T18:56:38.129Z,9.00
2023-03-04T18:59:10.039Z,8.67
2023-03-04T19:01:36.733Z,26.23
2023-03-04T19:04:05.589Z,34.57
2023-03-04T19:06:32.518Z,10.83
2023-03-04T19:08:59.009Z,9.60
2023-03-04T19:11:27.335Z,11.70
2023-03-04T19:13:53.642Z,11.80
2023-03-04T19:16:19.943Z,11.20
2023-03-04T19:18:46.195Z,10.67
2023-03-04T19:21:12.564Z,11.33
2023-03-04T19:23:39.875Z,10.13
2023-03-04T19:26:07.879Z,11.30
2023-03-04T19:28:34.846Z,9.37
2023-03-04T19:31:08.265Z,16.17
2023-03-04T19:33:35.785Z,10.00
2023-03-04T19:36:03.786Z,11.70
2023-03-04T19:38:31.013Z,10.53
2023-03-04T19:40:57.730Z,9.57
2023-03-04T19:43:24.006Z,10.20
2023-03-04T19:45:54.473Z,12.13
2023-03-04T19:48:21.126Z,10.97
2023-03-04T19:50:47.762Z,9.57
2023-03-04T19:53:18.387Z,10.83
2023-03-04T19:55:49.113Z,12.83
2023-03-04T19:58:15.948Z,10.53
2023-03-04T20:00:42.311Z,10.47
2023-03-04T20:03:08.644Z,9.93
2023-03-04T20:05:35.537Z,9.43
2023-03-04T20:08:02.037Z,9.57
2023-03-04T20:10:38.284Z,7.40
2023-03-04T20:13:05.332Z,18.03
2023-03-04T20:15:31.768Z,22.67
2023-03-04T20:17:58.200Z,9.60
2023-03-04T20:20:28.549Z,6.83
2023-03-04T20:22:55.574Z,8.67
2023-03-04T20:25:22.287Z,10.00
2023-03-04T20:27:48.621Z,7.57
2023-03-04T20:30:15.247Z,6.03
2023-03-04T20:32:41.638Z,11.50
2023-03-04T20:35:13.918Z,9.30
2023-03-04T20:37:41.537Z,9.73
2023-03-04T20:40:08.270Z,9.07
2023-03-04T20:42:34.881Z,6.70
2023-03-04T20:45:01.164Z,5.67
2023-03-04T20:47:27.462Z,5.40
2023-03-04T20:49:53.736Z,7.83
2023-03-04T20:52:20.036Z,8.10
2023-03-04T20:54:46.322Z,6.57
2023-03-04T20:57:12.639Z,6.07
2023-03-04T20:59:39.850Z,7.67
2023-03-04T21:02:07.268Z,8.03
2023-03-04T21:04:34.373Z,8.17
2023-03-04T21:07:03.528Z,5.33
2023-03-04T21:09:32.197Z,6.90
2023-03-04T21:12:00.500Z,6.20
2023-03-04T21:14:30.834Z,9.33
2023-03-04T21:16:58.564Z,8.10
2023-03-04T21:19:29.514Z,7.33
2023-03-04T21:21:56.723Z,6.60
2023-03-04T21:24:26.951Z,6.37
2023-03-04T21:26:53.277Z,8.03
2023-03-04T21:29:20.400Z,7.50
2023-03-04T21:31:48.705Z,6.97
2023-03-04T21:34:18.525Z,9.30
2023-03-04T21:36:44.801Z,4.07
2023-03-04T21:39:18.625Z,8.43
2023-03-04T21:41:45.376Z,7.63
2023-03-04T21:44:22.562Z,6.90
2023-03-04T21:46:55.931Z,6.10
2023-03-04T21:49:22.231Z,10.53
2023-03-04T21:51:48.498Z,4.97
2023-03-04T21:54:14.898Z,5.70
2023-03-04T21:56:41.519Z,5.73
2023-03-04T21:59:10.193Z,7.10
2023-03-04T22:01:36.460Z,4.90
2023-03-04T22:04:03.595Z,5.17
2023-03-04T22:06:31.263Z,5.17
2023-03-04T22:08:57.512Z,2.97
2023-03-04T22:11:24.101Z,7.23
2023-03-04T22:13:53.933Z,6.50
2023-03-04T22:16:20.373Z,5.63
2023-03-04T22:18:46.635Z,3.87
2023-03-04T22:21:14.585Z,6.50
2023-03-04T22:23:41.182Z,6.23
2023-03-04T22:26:08.772Z,7.43
2023-03-04T22:28:35.257Z,7.13
2023-03-04T22:31:01.908Z,5.43
2023-03-04T22:33:28.270Z,6.57
2023-03-04T22:35:54.558Z,7.67
2023-03-04T22:38:21.509Z,7.10
2023-03-04T22:40:48.936Z,6.13
2023-03-04T22:43:15.237Z,5.83
2023-03-04T22:45:41.562Z,6.77
2023-03-04T22:48:07.850Z,4.20
2023-03-04T22:50:34.922Z,6.30
2023-03-04T22:53:01.185Z,7.13
2023-03-04T22:55:27.510Z,7.00
2023-03-04T22:57:53.833Z,7.53
2023-03-04T23:00:24.019Z,6.63
2023-03-04T23:02:50.701Z,6.80
2023-03-04T23:05:18.456Z,9.30
2023-03-04T23:07:44.764Z,8.37
2023-03-04T23:10:13.958Z,6.80
2023-03-04T23:12:40.683Z,6.80
2023-03-04T23:15:08.058Z,8.40
2023-03-04T23:17:34.371Z,8.73
2023-03-04T23:20:00.644Z,6.97
2023-03-04T23:22:26.945Z,5.73
2023-03-04T23:24:53.186Z,6.03
2023-03-04T23:27:19.464Z,10.40
2023-03-04T23:29:45.862Z,9.33
2023-03-04T23:32:12.302Z,7.20
2023-03-04T23:34:38.618Z,8.43
2023-03-04T23:37:04.995Z,9.50
2023-03-04T23:39:31.286Z,9.13
2023-03-04T23:41:57.548Z,6.73
2023-03-04T23:44:24.019Z,8.43
2023-03-04T23:46:50.360Z,10.87
2023-03-04T23:49:17.847Z,8.70
2023-03-04T23:51:45.187Z,13.97
2023-03-04T23:54:12.354Z,9.33
2023-03-04T23:56:38.669Z,7.77
2023-03-04T23:59:05.010Z,8.07
